Time;durP1;ratioP1;P1;durP2;ratioP2;P2;SDS_P1;SDS_P2;PMS_P1;PMS_P2;Temp;Humidity;BMP_temperature;BMP_pressure;BME280_temperature;BME280_humidity;BME280_pressure;Samples;Min_cycle;Max_cycle;Signal;HPM_P1;HPM_P2
2021/01/20 14:55:43;;;;;;;1.00;0.80;;;10.00;81.90;;;;;;5043761;27;1376246;-83
2021/01/20 14:58:08;;;;;;;1.30;0.80;;;10.00;84.30;;;;;;5104774;28;20059;-84
2021/01/20 15:00:34;;;;;;;1.10;0.90;;;10.20;84.20;;;;;;5097212;28;20044;-83
2021/01/20 15:02:59;;;;;;;1.15;0.90;;;10.50;83.40;;;;;;5094696;28;20036;-80
2021/01/20 15:05:25;;;;;;;1.40;1.13;;;10.90;82.50;;;;;;5100238;28;20063;-84
2021/01/20 15:07:50;;;;;;;1.20;0.95;;;11.30;81.60;;;;;;5093426;28;20060;-82
2021/01/20 15:10:17;;;;;;;1.15;0.85;;;11.50;80.60;;;;;;5098831;28;20103;-83
2021/01/20 15:12:43;;;;;;;0.80;0.80;;;11.80;79.70;;;;;;5096662;28;20035;-83
2021/01/20 15:15:09;;;;;;;0.95;0.77;;;12.10;79.00;;;;;;5101848;28;20058;-83
2021/01/20 15:17:35;;;;;;;1.08;0.88;;;12.30;78.30;;;;;;5099461;28;20032;-82
2021/01/20 15:20:01;;;;;;;1.48;0.90;;;12.40;77.70;;;;;;5081671;28;20031;-83
2021/01/20 15:22:26;;;;;;;0.75;0.63;;;12.60;77.30;;;;;;5091754;28;20035;-81
2021/01/20 15:24:52;;;;;;;1.15;0.90;;;12.80;76.80;;;;;;5099897;28;20036;-79
2021/01/20 15:27:17;;;;;;;0.70;0.60;;;12.90;76.30;;;;;;5075688;28;20021;-81
2021/01/20 15:29:43;;;;;;;1.08;0.90;;;13.00;76.00;;;;;;5075500;28;20410;-83
2021/01/20 15:32:08;;;;;;;1.10;0.90;;;13.20;75.50;;;;;;5071978;28;20025;-81
2021/01/20 15:34:34;;;;;;;1.08;0.77;;;13.20;75.20;;;;;;5068226;28;20095;-83
2021/01/20 15:36:59;;;;;;;2.60;0.90;;;13.30;74.90;;;;;;5068373;28;20051;-84
2021/01/20 15:39:25;;;;;;;1.83;0.98;;;13.30;74.40;;;;;;5072085;28;20494;-82
2021/01/20 15:41:50;;;;;;;0.75;0.60;;;13.50;74.40;;;;;;5070086;28;20064;-82
2021/01/20 15:44:16;;;;;;;1.23;0.80;;;13.50;74.20;;;;;;5070866;28;20043;-84
2021/01/20 15:46:41;;;;;;;0.90;0.68;;;13.50;73.70;;;;;;5081708;28;20044;-82
2021/01/20 15:49:06;;;;;;;0.88;0.80;;;13.60;73.50;;;;;;5073608;28;20044;-83
2021/01/20 15:51:32;;;;;;;1.63;0.93;;;13.60;73.30;;;;;;5067150;28;20033;-84
2021/01/20 15:53:58;;;;;;;1.02;0.80;;;13.60;73.00;;;;;;5067381;28;20096;-82
2021/01/20 15:56:23;;;;;;;0.80;0.80;;;13.60;72.90;;;;;;5065515;28;20025;-81
2021/01/20 15:58:49;;;;;;;0.77;0.60;;;13.60;72.70;;;;;;5070770;28;20037;-81
2021/01/20 16:01:15;;;;;;;2.20;0.80;;;13.60;72.60;;;;;;5065516;28;20603;-84
2021/01/20 16:03:40;;;;;;;2.08;1.00;;;13.60;72.40;;;;;;5059944;28;20116;-79
2021/01/20 16:06:09;;;;;;;3.75;1.02;;;13.60;72.30;;;;;;5049393;28;20585;-79
2021/01/20 16:08:34;;;;;;;0.77;0.68;;;13.70;72.00;;;;;;5044688;28;20444;-78
2021/01/20 16:11:00;;;;;;;1.98;0.70;;;13.60;72.00;;;;;;5040506;28;20021;-78
2021/01/20 16:13:25;;;;;;;1.33;0.88;;;13.70;71.90;;;;;;5043964;28;20128;-79
2021/01/20 16:15:51;;;;;;;1.00;0.60;;;13.70;71.80;;;;;;5044196;28;20059;-78
2021/01/20 16:18:16;;;;;;;1.40;1.00;;;13.60;71.70;;;;;;5048681;28;20033;-78
2021/01/20 16:20:42;;;;;;;1.00;0.70;;;13.70;71.60;;;;;;5050244;22;20045;-72
2021/01/20 16:23:07;;;;;;;0.93;0.70;;;13.60;71.30;;;;;;5022501;28;20034;-72
2021/01/20 16:25:33;;;;;;;1.15;0.90;;;13.60;71.20;;;;;;5031398;28;20037;-72
2021/01/20 16:27:58;;;;;;;1.05;0.90;;;13.60;71.20;;;;;;5031533;28;20036;-72
2021/01/20 16:30:25;;;;;;;0.98;0.88;;;13.60;71.10;;;;;;5033477;28;20029;-72
2021/01/20 16:32:50;;;;;;;1.42;0.98;;;13.60;70.90;;;;;;5029028;28;20044;-72
2021/01/20 16:35:17;;;;;;;1.52;0.80;;;13.60;70.90;;;;;;5033457;28;20037;-71
2021/01/20 16:37:44;;;;;;;1.40;0.80;;;13.50;70.60;;;;;;5031929;28;20039;-72
2021/01/20 16:40:12;;;;;;;0.77;0.70;;;13.50;70.60;;;;;;5033060;28;20036;-73
2021/01/20 16:42:39;;;;;;;0.90;0.68;;;13.40;70.40;;;;;;5032503;28;20033;-73
2021/01/20 16:45:05;;;;;;;1.27;0.90;;;13.40;70.50;;;;;;5030232;28;20045;-72
2021/01/20 16:47:31;;;;;;;0.80;0.80;;;13.40;70.50;;;;;;5025464;28;21000;-72
2021/01/20 16:49:56;;;;;;;1.38;1.13;;;13.40;70.50;;;;;;5028388;28;20036;-73
2021/01/20 16:52:22;;;;;;;1.73;1.08;;;13.30;70.40;;;;;;5027003;28;20033;-72
2021/01/20 16:54:47;;;;;;;1.35;0.85;;;13.30;70.30;;;;;;5028227;28;20060;-72
2021/01/20 16:57:13;;;;;;;1.20;0.93;;;13.30;70.20;;;;;;5021109;28;20033;-72
2021/01/20 16:59:38;;;;;;;1.77;1.33;;;13.20;70.10;;;;;;5021593;28;20054;-73
2021/01/20 17:02:04;;;;;;;1.20;0.90;;;13.20;70.10;;;;;;5019230;28;20064;-73
2021/01/20 17:04:32;;;;;;;3.35;1.90;;;13.30;70.00;;;;;;5026067;28;20095;-74
2021/01/20 17:06:58;;;;;;;1.95;1.20;;;13.20;70.00;;;;;;5024643;28;20046;-72
2021/01/20 17:09:24;;;;;;;1.38;1.10;;;13.20;70.00;;;;;;5026924;28;20518;-72
2021/01/20 17:11:57;;;;;;;1.77;1.20;;;13.20;69.90;;;;;;5027009;28;20525;-72
2021/01/20 17:14:23;;;;;;;2.55;1.60;;;13.10;69.80;;;;;;5023993;28;20045;-72
2021/01/20 17:16:49;;;;;;;1.85;1.02;;;13.30;69.90;;;;;;5020748;28;20100;-72
2021/01/20 17:19:15;;;;;;;0.98;0.77;;;13.10;69.70;;;;;;5025324;28;20384;-72
2021/01/20 17:21:41;;;;;;;1.30;1.17;;;13.10;69.70;;;;;;5025129;28;20549;-72
2021/01/20 17:24:07;;;;;;;1.20;1.10;;;13.10;69.60;;;;;;5024170;28;20473;-72
2021/01/20 17:26:33;;;;;;;2.13;1.25;;;13.00;69.50;;;;;;5020685;28;20030;-74
2021/01/20 17:28:59;;;;;;;2.10;1.67;;;13.00;69.50;;;;;;5022136;28;20056;-72
2021/01/20 17:31:24;;;;;;;1.55;1.23;;;13.00;69.50;;;;;;5023016;28;20120;-72
2021/01/20 17:33:50;;;;;;;1.67;1.25;;;13.00;69.50;;;;;;5028010;28;20060;-72
2021/01/20 17:36:15;;;;;;;1.63;1.08;;;13.00;69.60;;;;;;5025054;28;20037;-72
2021/01/20 17:38:41;;;;;;;1.52;1.17;;;12.90;69.60;;;;;;5021215;28;20550;-72
2021/01/20 17:41:07;;;;;;;1.58;1.05;;;12.90;69.40;;;;;;5027684;28;20372;-72
2021/01/20 17:43:32;;;;;;;1.98;1.00;;;12.90;69.40;;;;;;5029493;28;20558;-72
2021/01/20 17:45:58;;;;;;;0.93;0.60;;;12.90;69.40;;;;;;5008497;28;20429;-72
2021/01/20 17:48:24;;;;;;;1.08;0.85;;;13.00;69.40;;;;;;5030226;28;20025;-72
2021/01/20 17:50:50;;;;;;;1.27;1.10;;;12.90;69.30;;;;;;5024287;28;20499;-73
2021/01/20 17:53:16;;;;;;;1.83;1.48;;;13.00;69.40;;;;;;5023639;28;20039;-73
2021/01/20 17:55:41;;;;;;;1.83;1.30;;;13.00;69.30;;;;;;5026610;28;20037;-72
2021/01/20 17:58:07;;;;;;;1.25;1.10;;;13.00;69.20;;;;;;5025329;28;20106;-72
2021/01/20 18:00:32;;;;;;;1.10;1.00;;;12.90;69.10;;;;;;5025450;28;20053;-72
2021/01/20 18:02:58;;;;;;;1.40;1.08;;;12.90;69.00;;;;;;5022667;28;20033;-73
2021/01/20 18:05:23;;;;;;;1.48;0.98;;;12.90;68.90;;;;;;5023168;28;20060;-72
2021/01/20 18:07:49;;;;;;;1.73;1.40;;;12.90;68.90;;;;;;5027488;28;20494;-73
2021/01/20 18:10:15;;;;;;;1.83;1.20;;;12.90;68.90;;;;;;5032875;28;20075;-72
2021/01/20 18:12:41;;;;;;;1.25;1.08;;;12.90;68.90;;;;;;5024142;28;20026;-72
2021/01/20 18:15:12;;;;;;;1.65;1.20;;;12.90;69.00;;;;;;5024909;28;20033;-72
2021/01/20 18:17:38;;;;;;;0.98;0.65;;;12.90;68.50;;;;;;5026042;28;20037;-72
2021/01/20 18:20:05;;;;;;;1.40;0.82;;;12.90;68.90;;;;;;5030832;28;20128;-72
2021/01/20 18:22:31;;;;;;;0.80;0.80;;;12.90;68.80;;;;;;5031510;28;20037;-72
2021/01/20 18:24:57;;;;;;;2.13;0.90;;;12.90;68.90;;;;;;5024717;28;20040;-73
2021/01/20 18:27:22;;;;;;;0.75;0.75;;;12.90;68.90;;;;;;5026364;28;20064;-72
2021/01/20 18:29:48;;;;;;;1.35;1.05;;;13.00;68.80;;;;;;5026458;28;20030;-72
2021/01/20 18:32:13;;;;;;;1.40;0.88;;;12.90;68.70;;;;;;5024618;28;20112;-72
2021/01/20 18:34:39;;;;;;;1.38;1.13;;;12.90;68.60;;;;;;5027523;28;20052;-73
2021/01/20 18:37:09;;;;;;;1.58;1.20;;;12.90;68.60;;;;;;5031253;28;20124;-72
2021/01/20 18:39:35;;;;;;;1.08;0.98;;;13.00;68.60;;;;;;5029979;28;20048;-72
2021/01/20 18:42:01;;;;;;;1.00;0.85;;;12.90;68.50;;;;;;5029287;28;20030;-72
2021/01/20 18:44:26;;;;;;;1.40;1.25;;;12.90;68.40;;;;;;5029932;28;20035;-73
2021/01/20 18:46:52;;;;;;;2.40;1.70;;;12.90;68.30;;;;;;5026454;28;20124;-73
2021/01/20 18:49:17;;;;;;;2.55;1.85;;;13.00;68.30;;;;;;5028669;28;20034;-72
2021/01/20 18:51:45;;;;;;;2.17;1.60;;;12.90;68.20;;;;;;5011529;28;20033;-72
2021/01/20 18:54:11;;;;;;;1.98;1.25;;;12.90;68.20;;;;;;5033012;28;20519;-72
2021/01/20 18:56:37;;;;;;;1.73;1.38;;;12.90;68.10;;;;;;5028620;28;20029;-72
2021/01/20 18:59:03;;;;;;;2.00;1.25;;;12.90;68.00;;;;;;5033722;28;20487;-72
2021/01/20 19:01:29;;;;;;;2.28;1.20;;;12.80;67.90;;;;;;5028706;28;20518;-72
2021/01/20 19:03:54;;;;;;;1.05;0.75;;;12.90;68.00;;;;;;5026138;28;20049;-73
2021/01/20 19:06:20;;;;;;;1.40;1.10;;;12.80;67.90;;;;;;5016708;28;20034;-72
2021/01/20 19:08:45;;;;;;;1.25;0.90;;;12.80;67.90;;;;;;5020264;28;20056;-73
2021/01/20 19:11:11;;;;;;;1.08;0.93;;;12.80;67.90;;;;;;5029105;28;20037;-73
2021/01/20 19:13:37;;;;;;;1.25;0.80;;;12.80;67.80;;;;;;5007280;28;20038;-73
2021/01/20 19:16:03;;;;;;;1.60;1.08;;;12.70;67.70;;;;;;5029501;28;20490;-73
2021/01/20 19:18:28;;;;;;;1.25;0.82;;;12.70;67.70;;;;;;5020260;28;20034;-73
2021/01/20 19:20:54;;;;;;;0.93;0.82;;;12.70;67.60;;;;;;5027704;28;20065;-72
2021/01/20 19:23:19;;;;;;;1.75;1.20;;;12.70;67.60;;;;;;5025756;28;20041;-73
2021/01/20 19:25:46;;;;;;;1.48;1.10;;;12.70;67.60;;;;;;5029185;28;20090;-73
2021/01/20 19:28:12;;;;;;;1.70;1.00;;;12.70;67.70;;;;;;5024125;28;20025;-73
2021/01/20 19:30:38;;;;;;;1.98;1.25;;;12.70;67.60;;;;;;5028443;28;20095;-73
2021/01/20 19:33:03;;;;;;;0.80;0.70;;;12.60;67.60;;;;;;5027902;28;20017;-73
2021/01/20 19:35:29;;;;;;;1.15;1.00;;;12.70;67.60;;;;;;5031179;28;20033;-73
2021/01/20 19:37:54;;;;;;;1.80;1.10;;;12.60;67.50;;;;;;5020439;28;20057;-73
2021/01/20 19:40:20;;;;;;;1.77;0.82;;;12.60;67.50;;;;;;5027979;28;20079;-73
2021/01/20 19:42:46;;;;;;;1.13;0.98;;;12.70;67.60;;;;;;5034083;28;20042;-72
2021/01/20 19:45:12;;;;;;;1.02;0.93;;;12.60;67.60;;;;;;5025656;28;20407;-73
2021/01/20 19:47:37;;;;;;;1.67;0.93;;;12.60;67.50;;;;;;5024769;28;20452;-73
2021/01/20 19:50:03;;;;;;;1.63;1.20;;;12.60;67.60;;;;;;5026063;28;20036;-73
2021/01/20 19:52:29;;;;;;;0.70;0.65;;;12.60;67.50;;;;;;5029606;28;20037;-75
2021/01/20 19:54:54;;;;;;;6.47;1.45;;;12.70;67.60;;;;;;5033361;28;20455;-74
2021/01/20 19:57:20;;;;;;;1.40;1.10;;;12.70;67.60;;;;;;5033789;28;20033;-75
2021/01/20 19:59:45;;;;;;;1.05;0.70;;;12.70;67.60;;;;;;5019894;28;20544;-75
2021/01/20 20:02:10;;;;;;;1.20;0.70;;;12.70;67.40;;;;;;5022131;28;20049;-72
2021/01/20 20:04:37;;;;;;;0.90;0.70;;;12.70;67.40;;;;;;5034580;28;20033;-73
2021/01/20 20:07:03;;;;;;;3.25;1.45;;;12.80;67.50;;;;;;5019069;28;20030;-72
2021/01/20 20:09:28;;;;;;;0.75;0.60;;;12.80;67.40;;;;;;5033210;28;20032;-72
2021/01/20 20:11:54;;;;;;;0.80;0.70;;;12.70;67.30;;;;;;5035526;28;20021;-72
2021/01/20 20:14:19;;;;;;;1.98;0.98;;;12.70;67.30;;;;;;5027958;28;20079;-72
2021/01/20 20:16:45;;;;;;;1.02;0.70;;;12.80;67.30;;;;;;5037563;28;21603;-72
2021/01/20 20:19:10;;;;;;;1.38;0.73;;;12.80;67.20;;;;;;5030300;28;20029;-73
2021/01/20 20:21:36;;;;;;;1.45;0.80;;;12.80;67.10;;;;;;5035123;28;20622;-72
2021/01/20 20:24:01;;;;;;;1.90;0.88;;;12.80;67.10;;;;;;5028685;28;20038;-72
2021/01/20 20:26:27;;;;;;;1.25;0.80;;;12.90;67.10;;;;;;5032826;28;20577;-72
2021/01/20 20:28:52;;;;;;;0.57;0.50;;;12.80;66.90;;;;;;5028884;28;20116;-72
2021/01/20 20:31:18;;;;;;;1.77;1.08;;;12.80;66.80;;;;;;5028381;28;20029;-72
2021/01/20 20:33:43;;;;;;;1.60;0.60;;;12.80;66.80;;;;;;5029051;28;20116;-73
2021/01/20 20:36:09;;;;;;;1.08;0.80;;;12.70;66.70;;;;;;5032003;28;20483;-72
2021/01/20 20:38:35;;;;;;;1.42;0.90;;;12.70;66.60;;;;;;5022722;28;20042;-72
2021/01/20 20:41:01;;;;;;;0.90;0.80;;;12.70;66.60;;;;;;5030053;28;20057;-72
2021/01/20 20:43:26;;;;;;;2.83;1.23;;;12.70;66.60;;;;;;5035005;28;20556;-72
2021/01/20 20:45:52;;;;;;;0.88;0.60;;;12.80;66.70;;;;;;5031799;28;20091;-72
2021/01/20 20:48:17;;;;;;;0.70;0.70;;;12.70;67.20;;;;;;5012827;28;20068;-72
2021/01/20 20:50:44;;;;;;;1.50;0.90;;;12.70;66.60;;;;;;5035193;28;20032;-72
2021/01/20 20:53:10;;;;;;;0.60;0.50;;;12.70;66.60;;;;;;5030932;28;20033;-72
2021/01/20 20:55:36;;;;;;;0.52;0.52;;;12.60;66.60;;;;;;5032529;28;20038;-72
2021/01/20 20:58:01;;;;;;;0.70;0.70;;;12.60;66.60;;;;;;5030262;28;20209;-72
2021/01/20 21:00:27;;;;;;;0.60;0.50;;;12.80;66.70;;;;;;5029670;28;20395;-72
2021/01/20 21:02:52;;;;;;;1.05;0.77;;;12.70;67.20;;;;;;5029597;28;20063;-72
2021/01/20 21:05:19;;;;;;;0.60;0.60;;;12.60;66.60;;;;;;5027828;28;20032;-73
2021/01/20 21:07:45;;;;;;;0.90;0.63;;;12.60;66.60;;;;;;5026226;28;20131;-72
2021/01/20 21:10:10;;;;;;;1.17;0.80;;;12.60;66.60;;;;;;5027120;28;20475;-72
2021/01/20 21:12:36;;;;;;;0.90;0.63;;;12.60;66.50;;;;;;5027655;28;20124;-71
2021/01/20 21:15:02;;;;;;;1.23;0.90;;;12.50;66.40;;;;;;5032492;28;20033;-71
2021/01/20 21:17:29;;;;;;;1.45;0.85;;;12.50;66.40;;;;;;5021851;28;20061;-72
2021/01/20 21:20:00;;;;;;;1.27;0.80;;;12.50;66.30;;;;;;5023813;28;20569;-72
2021/01/20 21:22:29;;;;;;;2.13;0.88;;;12.50;66.00;;;;;;5024795;28;20415;-72
2021/01/20 21:24:56;;;;;;;0.82;0.50;;;12.50;66.20;;;;;;5031301;28;20029;-73
2021/01/20 21:27:21;;;;;;;1.15;0.80;;;12.50;66.10;;;;;;5028161;28;20038;-75
2021/01/20 21:29:47;;;;;;;0.90;0.90;;;12.50;66.10;;;;;;5026481;28;20533;-74
2021/01/20 21:32:13;;;;;;;0.77;0.70;;;12.40;66.10;;;;;;5024534;28;20117;-76
2021/01/20 21:34:38;;;;;;;2.33;0.85;;;12.40;66.10;;;;;;5025085;28;20033;-74
2021/01/20 21:37:04;;;;;;;1.50;0.90;;;12.30;66.10;;;;;;5027343;28;20037;-74
2021/01/20 21:39:29;;;;;;;1.65;1.17;;;12.30;66.00;;;;;;5025135;28;20033;-71
2021/01/20 21:41:55;;;;;;;1.00;0.70;;;12.30;66.10;;;;;;5008857;28;20048;-72
2021/01/20 21:44:21;;;;;;;0.98;0.70;;;12.30;66.10;;;;;;5026130;28;20483;-74
2021/01/20 21:46:46;;;;;;;1.38;0.85;;;12.20;66.00;;;;;;5023571;28;20120;-74
2021/01/20 21:49:13;;;;;;;1.15;0.82;;;12.20;66.10;;;;;;5028396;28;20037;-74
2021/01/20 21:51:38;;;;;;;1.80;0.80;;;12.10;65.90;;;;;;5025121;28;20053;-74
2021/01/20 21:54:04;;;;;;;1.02;0.80;;;12.10;66.00;;;;;;5024844;28;20116;-75
2021/01/20 21:56:30;;;;;;;0.63;0.60;;;12.10;66.00;;;;;;5025720;28;20018;-74
2021/01/20 21:58:55;;;;;;;2.13;0.88;;;12.10;66.00;;;;;;5025108;28;20022;-74
2021/01/20 22:01:21;;;;;;;0.77;0.65;;;12.00;66.00;;;;;;5025205;28;20037;-73
2021/01/20 22:03:46;;;;;;;1.17;0.80;;;12.00;66.00;;;;;;5021628;28;20502;-75
2021/01/20 22:06:11;;;;;;;1.30;0.85;;;12.00;66.10;;;;;;5028443;28;20029;-75
2021/01/20 22:08:37;;;;;;;1.08;0.80;;;12.00;66.20;;;;;;5027507;28;20465;-75
2021/01/20 22:11:02;;;;;;;0.93;0.60;;;11.90;66.20;;;;;;5030337;28;20124;-74
2021/01/20 22:13:28;;;;;;;1.50;0.85;;;11.90;66.20;;;;;;5023446;28;20049;-76
2021/01/20 22:15:54;;;;;;;0.77;0.75;;;12.00;66.30;;;;;;5020310;28;20071;-75
2021/01/20 22:18:19;;;;;;;0.75;0.52;;;11.90;66.30;;;;;;5023802;28;20038;-75
2021/01/20 22:20:45;;;;;;;1.85;0.70;;;11.90;66.30;;;;;;5031011;23;20057;-78
2021/01/20 22:23:10;;;;;;;0.60;0.50;;;11.90;66.40;;;;;;5023816;28;20044;-78
2021/01/20 22:25:36;;;;;;;0.80;0.75;;;11.80;66.30;;;;;;5032910;28;20034;-76
2021/01/20 22:28:02;;;;;;;1.20;0.80;;;11.80;66.30;;;;;;5025514;28;20029;-78
2021/01/20 22:30:27;;;;;;;1.77;0.90;;;11.80;66.40;;;;;;5020967;28;20506;-79
2021/01/20 22:32:52;;;;;;;0.52;0.45;;;11.80;66.50;;;;;;5041609;28;20521;-74
2021/01/20 22:35:18;;;;;;;0.88;0.60;;;11.90;66.60;;;;;;5051191;28;20375;-79
2021/01/20 22:37:44;;;;;;;0.73;0.50;;;11.90;66.50;;;;;;5042831;28;20037;-78
2021/01/20 22:40:10;;;;;;;1.25;0.60;;;11.90;66.50;;;;;;5056776;28;20521;-78
2021/01/20 22:42:35;;;;;;;0.70;0.70;;;11.90;66.50;;;;;;5046555;28;20064;-76
2021/01/20 22:45:01;;;;;;;0.95;0.70;;;11.90;66.50;;;;;;5051787;28;20060;-78
2021/01/20 22:47:26;;;;;;;0.55;0.52;;;11.90;66.40;;;;;;5047550;28;20025;-77
2021/01/20 22:49:52;;;;;;;1.35;0.90;;;11.90;66.40;;;;;;5050678;28;20034;-78
2021/01/20 22:52:17;;;;;;;1.92;0.93;;;11.90;66.50;;;;;;5046761;28;20056;-77
2021/01/20 22:54:43;;;;;;;1.08;0.52;;;11.90;66.40;;;;;;5050083;28;20094;-80
2021/01/20 22:57:08;;;;;;;1.63;1.25;;;11.90;66.50;;;;;;5035792;28;20545;-78
2021/01/20 22:59:34;;;;;;;0.60;0.55;;;11.90;66.60;;;;;;5049631;28;20037;-77
2021/01/20 23:01:59;;;;;;;0.70;0.60;;;11.90;66.60;;;;;;5047783;28;20406;-78
2021/01/20 23:04:26;;;;;;;1.02;0.65;;;11.90;66.60;;;;;;5051961;28;20180;-79
2021/01/20 23:06:54;;;;;;;1.05;0.70;;;12.00;66.70;;;;;;5042438;28;20025;-78
2021/01/20 23:09:20;;;;;;;0.90;0.60;;;12.00;66.80;;;;;;5050719;28;20025;-79
2021/01/20 23:11:46;;;;;;;1.30;0.50;;;12.10;66.80;;;;;;5043743;28;20048;-79
2021/01/20 23:14:11;;;;;;;0.75;0.50;;;12.00;66.70;;;;;;5052894;28;20037;-78
2021/01/20 23:16:37;;;;;;;0.70;0.50;;;12.10;66.70;;;;;;5048352;28;20402;-77
2021/01/20 23:19:02;;;;;;;0.60;0.52;;;12.10;66.70;;;;;;5038747;28;20033;-78
2021/01/20 23:21:28;;;;;;;1.02;0.77;;;12.10;66.60;;;;;;5050961;28;20033;-78
2021/01/20 23:23:53;;;;;;;0.43;0.38;;;12.10;66.60;;;;;;5052158;28;20130;-76
2021/01/20 23:26:19;;;;;;;1.42;0.75;;;12.20;66.60;;;;;;5051004;28;20036;-78
2021/01/20 23:28:45;;;;;;;1.35;0.80;;;12.20;66.60;;;;;;5052823;28;20583;-78
2021/01/20 23:31:11;;;;;;;1.15;0.65;;;12.20;66.60;;;;;;5050530;28;20443;-78
2021/01/20 23:33:37;;;;;;;2.35;1.58;;;12.30;66.60;;;;;;5055074;28;20057;-78
2021/01/20 23:36:03;;;;;;;2.17;0.90;;;12.30;66.60;;;;;;5055373;28;20029;-77
2021/01/20 23:38:29;;;;;;;0.50;0.50;;;12.30;66.60;;;;;;5052296;28;20091;-78
2021/01/20 23:40:54;;;;;;;1.00;0.68;;;12.40;66.60;;;;;;5053697;28;20120;-78
2021/01/20 23:43:20;;;;;;;1.55;0.60;;;12.40;66.60;;;;;;5057897;28;20127;-78
2021/01/20 23:45:45;;;;;;;1.45;0.60;;;12.50;66.50;;;;;;5047034;28;20498;-76
2021/01/20 23:48:11;;;;;;;1.20;0.65;;;12.50;66.50;;;;;;5058403;28;20025;-78
2021/01/20 23:50:37;;;;;;;1.30;0.65;;;12.60;66.40;;;;;;5055010;28;20074;-79
2021/01/20 23:53:02;;;;;;;1.15;0.60;;;12.50;66.30;;;;;;5056510;28;20424;-78
2021/01/20 23:55:27;;;;;;;0.65;0.40;;;12.60;66.20;;;;;;5038274;28;20063;-79
2021/01/20 23:57:53;;;;;;;0.82;0.55;;;12.60;66.20;;;;;;5058546;28;20025;-78
